Time;durP1;ratioP1;P1;durP2;ratioP2;P2;SDS_P1;SDS_P2;PMS_P1;PMS_P2;Temp;Humidity;BMP_temperature;BMP_pressure;BME280_temperature;BME280_humidity;BME280_pressure;Samples;Min_cycle;Max_cycle;Signal;HPM_P1;HPM_P2
2023/02/06 00:01:00;;;;;;;13.30;7.13;;;;;;;2.50;100.00;103074.63;5160700;28;20030;-72
2023/02/06 00:03:30;;;;;;;14.43;7.50;;;;;;;2.47;100.00;103074.53;5158027;28;20030;-72
2023/02/06 00:06:02;;;;;;;17.10;7.88;;;;;;;2.52;100.00;103070.41;5158175;28;20026;-72
2023/02/06 00:08:33;;;;;;;15.60;8.52;;;;;;;2.50;100.00;103075.50;5154710;28;20270;-71
2023/02/06 00:11:06;;;;;;;20.38;8.25;;;;;;;2.49;100.00;103072.88;5163577;28;20042;-73
2023/02/06 00:13:37;;;;;;;17.15;8.30;;;;;;;2.33;100.00;103073.13;5157738;28;20033;-71
2023/02/06 00:16:19;;;;;;;14.65;8.13;;;;;;;2.42;100.00;103076.94;5158821;28;20250;-71
2023/02/06 00:18:51;;;;;;;15.52;8.20;;;;;;;2.47;100.00;103084.84;5157976;28;20022;-73
2023/02/06 00:21:23;;;;;;;17.88;8.98;;;;;;;2.39;100.00;103066.50;5158420;28;20038;-71
2023/02/06 00:23:55;;;;;;;16.88;9.25;;;;;;;2.47;100.00;103059.06;5156832;28;20041;-74
2023/02/06 00:26:25;;;;;;;15.27;8.00;;;;;;;2.40;100.00;103059.63;5157918;28;20385;-73
2023/02/06 00:28:56;;;;;;;17.38;8.80;;;;;;;2.39;100.00;103061.34;5158604;28;20088;-71
2023/02/06 00:31:26;;;;;;;17.65;9.70;;;;;;;2.42;100.00;103057.97;5158078;28;20030;-71
2023/02/06 00:33:56;;;;;;;19.70;9.68;;;;;;;2.44;100.00;103056.34;5156812;28;20032;-71
2023/02/06 00:36:27;;;;;;;22.35;10.20;;;;;;;2.48;100.00;103061.66;5159790;28;20345;-73
2023/02/06 00:38:57;;;;;;;15.55;9.00;;;;;;;2.54;100.00;103056.72;5158527;28;20022;-72
2023/02/06 00:41:27;;;;;;;17.77;9.48;;;;;;;2.50;100.00;103046.25;5158211;28;20032;-73
2023/02/06 00:43:58;;;;;;;21.20;10.20;;;;;;;2.45;100.00;103040.91;5156992;28;20105;-72
2023/02/06 00:46:28;;;;;;;20.45;9.77;;;;;;;2.37;100.00;103046.63;5157565;28;20031;-73
2023/02/06 00:48:58;;;;;;;18.60;9.55;;;;;;;2.40;100.00;103054.47;5156278;28;20022;-72
2023/02/06 00:51:29;;;;;;;18.15;9.75;;;;;;;2.46;100.00;103036.63;5160004;28;20468;-71
2023/02/06 00:53:59;;;;;;;16.67;9.50;;;;;;;2.50;100.00;103046.25;5158725;28;20499;-71
2023/02/06 00:56:29;;;;;;;17.42;9.52;;;;;;;2.60;100.00;103043.16;5158310;28;20026;-71
2023/02/06 00:59:00;;;;;;;19.38;9.57;;;;;;;2.57;100.00;103049.13;5158454;28;20388;-71
2023/02/06 01:01:30;;;;;;;18.13;9.52;;;;;;;2.67;100.00;103052.91;5158218;28;20042;-72
2023/02/06 01:04:00;;;;;;;17.80;9.00;;;;;;;2.65;100.00;103060.59;5158371;28;20034;-72
2023/02/06 01:06:31;;;;;;;14.70;8.65;;;;;;;2.64;100.00;103061.41;5154264;28;20023;-73
2023/02/06 01:09:01;;;;;;;17.83;9.50;;;;;;;2.63;100.00;103054.50;5161747;28;20029;-72
2023/02/06 01:11:32;;;;;;;17.10;9.30;;;;;;;2.70;100.00;103063.34;5158681;28;20045;-74
2023/02/06 01:14:02;;;;;;;19.55;9.68;;;;;;;2.70;100.00;103047.84;5157514;28;20034;-72
2023/02/06 01:16:32;;;;;;;20.42;9.35;;;;;;;2.70;100.00;103053.88;5159589;28;20543;-71
2023/02/06 01:19:03;;;;;;;17.35;9.27;;;;;;;2.54;100.00;103064.47;5164425;28;20040;-72
2023/02/06 01:21:33;;;;;;;17.55;10.18;;;;;;;2.59;100.00;103070.69;5161834;28;20049;-72
2023/02/06 01:24:03;;;;;;;18.80;10.52;;;;;;;2.70;100.00;103068.50;5161935;28;20476;-73
2023/02/06 01:26:34;;;;;;;19.20;9.65;;;;;;;2.64;100.00;103069.16;5160348;28;20034;-72
2023/02/06 01:29:04;;;;;;;20.23;10.32;;;;;;;2.74;100.00;103067.78;5163794;28;20057;-73
2023/02/06 01:31:34;;;;;;;19.02;10.32;;;;;;;2.70;100.00;103064.19;5161160;28;20026;-71
2023/02/06 01:34:06;;;;;;;19.85;10.60;;;;;;;2.67;100.00;103061.50;5159471;28;20639;-73
2023/02/06 01:36:37;;;;;;;22.27;10.57;;;;;;;2.64;100.00;103063.09;5159598;28;20038;-72
2023/02/06 01:39:08;;;;;;;21.77;10.32;;;;;;;2.61;100.00;103063.00;5160823;28;20500;-72
2023/02/06 01:41:38;;;;;;;20.27;10.38;;;;;;;2.62;100.00;103065.63;5161335;28;20026;-72
2023/02/06 01:44:21;;;;;;;18.02;9.90;;;;;;;2.77;100.00;103070.47;5160080;28;20036;-72
2023/02/06 01:46:54;;;;;;;17.73;9.70;;;;;;;2.69;100.00;103072.75;5159784;28;20084;-73
2023/02/06 01:49:33;;;;;;;19.27;9.85;;;;;;;2.65;100.00;103060.59;5161372;28;20022;-71
2023/02/06 01:52:12;;;;;;;21.40;10.43;;;;;;;2.70;100.00;103068.50;5163643;28;20065;-71
2023/02/06 01:54:46;;;;;;;21.30;10.82;;;;;;;2.72;100.00;103069.44;5151105;28;20158;-73
2023/02/06 01:57:18;;;;;;;24.40;11.23;;;;;;;2.67;100.00;103084.75;5163147;28;20089;-74
2023/02/06 01:59:53;;;;;;;22.73;11.88;;;;;;;2.59;100.00;103077.53;5160649;28;20030;-72
2023/02/06 02:02:27;;;;;;;23.48;11.80;;;;;;;2.68;100.00;103067.56;5161694;28;20191;-71
2023/02/06 02:04:58;;;;;;;31.48;12.52;;;;;;;2.78;100.00;103074.81;5186910;23;20060;-72
2023/02/06 02:07:35;;;;;;;27.67;13.07;;;;;;;2.69;100.00;103071.91;5179871;28;20125;-74
2023/02/06 02:10:06;;;;;;;26.75;13.13;;;;;;;2.68;100.00;103065.84;5179512;28;20030;-72
2023/02/06 02:12:37;;;;;;;26.10;12.77;;;;;;;2.70;100.00;103071.94;5182012;28;20028;-73
2023/02/06 02:15:07;;;;;;;30.75;13.75;;;;;;;2.68;100.00;103071.00;5175131;28;20516;-74
2023/02/06 02:17:55;;;;;;;32.00;13.65;;;;;;;2.67;100.00;103073.56;5178465;28;20112;-73
2023/02/06 02:20:59;;;;;;;29.73;14.15;;;;;;;2.61;100.00;103061.31;5181021;28;20061;-74
2023/02/06 02:23:46;;;;;;;34.33;14.75;;;;;;;2.60;100.00;103063.81;5181373;28;20033;-73
2023/02/06 02:26:35;;;;;;;36.78;16.27;;;;;;;2.66;100.00;103067.50;5177178;28;20160;-73
2023/02/06 02:29:27;;;;;;;40.17;15.38;;;;;;;2.62;100.00;103075.06;5177317;28;20083;-73
2023/02/06 02:32:24;;;;;;;43.78;15.50;;;;;;;2.55;100.00;103075.69;5181931;28;20018;-73
2023/02/06 02:35:01;;;;;;;50.33;17.55;;;;;;;2.51;100.00;103077.25;5177965;28;20127;-73
2023/02/06 02:38:00;;;;;;;40.60;16.50;;;;;;;2.54;100.00;103077.38;5176915;28;20084;-72
2023/02/06 02:40:42;;;;;;;54.60;18.10;;;;;;;2.53;100.00;103077.34;5181581;28;20036;-73
2023/02/06 02:43:26;;;;;;;46.75;16.77;;;;;;;2.54;100.00;103077.38;5176204;28;20061;-73
2023/02/06 02:46:22;;;;;;;47.22;18.38;;;;;;;2.52;100.00;103075.56;5174525;28;20029;-72
2023/02/06 02:48:55;;;;;;;44.90;17.27;;;;;;;2.43;100.00;103070.94;5180710;28;20040;-73
2023/02/06 02:51:25;;;;;;;47.45;17.98;;;;;;;2.46;100.00;103077.91;5181422;28;20029;-73
2023/02/06 02:53:57;;;;;;;47.85;18.13;;;;;;;2.36;100.00;103071.53;5179765;28;20032;-72
2023/02/06 02:56:27;;;;;;;47.72;18.10;;;;;;;2.39;100.00;103070.78;5180959;28;20071;-72
2023/02/06 02:59:01;;;;;;;40.75;16.80;;;;;;;2.38;100.00;103063.84;5179866;28;20495;-72
2023/02/06 03:01:38;;;;;;;50.05;17.52;;;;;;;2.43;100.00;103068.38;5176413;28;20541;-72
2023/02/06 03:04:18;;;;;;;43.75;17.58;;;;;;;2.41;100.00;103066.53;5177256;28;20488;-72
2023/02/06 03:07:14;;;;;;;51.10;18.00;;;;;;;2.37;100.00;103070.69;5179764;28;20115;-72
2023/02/06 03:09:45;;;;;;;45.63;17.55;;;;;;;2.39;100.00;103071.66;5179138;28;20555;-73
2023/02/06 03:12:36;;;;;;;50.45;18.70;;;;;;;2.49;100.00;103080.63;5175764;28;20232;-73
2023/02/06 03:15:19;;;;;;;50.97;18.52;;;;;;;2.49;100.00;103083.22;5176814;28;20030;-73
2023/02/06 03:18:10;;;;;;;42.78;17.58;;;;;;;2.44;100.00;103079.56;5180714;28;20013;-72
2023/02/06 03:20:44;;;;;;;44.65;18.63;;;;;;;2.46;100.00;103083.06;5173424;28;20399;-73
2023/02/06 03:23:21;;;;;;;47.60;20.60;;;;;;;2.37;100.00;103073.28;5179782;28;20030;-73
2023/02/06 03:25:54;;;;;;;47.95;19.33;;;;;;;2.40;100.00;103072.53;5178986;28;20116;-73
2023/02/06 03:28:30;;;;;;;53.95;20.35;;;;;;;2.38;100.00;103069.03;5179893;28;20033;-73
2023/02/06 03:31:05;;;;;;;48.40;20.15;;;;;;;2.35;100.00;103064.63;5174974;28;20030;-73
2023/02/06 03:33:44;;;;;;;55.92;20.92;;;;;;;2.40;100.00;103063.09;5180173;28;20039;-73
2023/02/06 03:36:17;;;;;;;48.75;19.95;;;;;;;2.44;100.00;103069.22;5177548;28;20053;-73
2023/02/06 03:38:49;;;;;;;58.85;21.25;;;;;;;2.38;100.00;103062.16;5174524;28;20036;-72
2023/02/06 03:41:28;;;;;;;55.63;19.90;;;;;;;2.34;100.00;103054.25;5179848;28;20030;-72
2023/02/06 03:44:01;;;;;;;49.85;19.15;;;;;;;2.36;100.00;103052.59;5179483;28;20033;-73
2023/02/06 03:46:33;;;;;;;48.53;18.55;;;;;;;2.32;100.00;103053.31;5171331;28;20037;-73
2023/02/06 03:49:06;;;;;;;50.65;19.60;;;;;;;2.18;100.00;103059.66;5175925;28;20127;-73
2023/02/06 03:51:46;;;;;;;48.05;19.17;;;;;;;2.25;100.00;103059.94;5180333;28;20487;-74
2023/02/06 03:54:20;;;;;;;46.03;18.35;;;;;;;2.26;100.00;103063.38;5170780;28;20042;-72
2023/02/06 03:56:53;;;;;;;52.97;18.98;;;;;;;2.25;100.00;103062.53;5179789;28;20025;-73
2023/02/06 03:59:24;;;;;;;47.45;19.05;;;;;;;2.29;100.00;103060.91;5179206;28;20037;-75
2023/02/06 04:01:59;;;;;;;47.20;18.08;;;;;;;2.37;100.00;103068.13;5179598;28;20030;-73
2023/02/06 04:04:41;;;;;;;49.47;19.23;;;;;;;2.38;100.00;103053.53;5174329;28;20041;-73
2023/02/06 04:07:18;;;;;;;42.47;17.40;;;;;;;2.35;100.00;103049.13;5179857;28;20038;-72
2023/02/06 04:09:48;;;;;;;41.15;17.00;;;;;;;2.29;100.00;103059.22;5180253;28;20384;-73
2023/02/06 04:12:20;;;;;;;41.72;17.42;;;;;;;2.31;100.00;103056.72;5179691;28;20030;-73
2023/02/06 04:14:51;;;;;;;40.97;17.50;;;;;;;2.23;100.00;103052.97;5175503;28;20262;-75
2023/02/06 04:17:21;;;;;;;40.13;16.27;;;;;;;2.28;100.00;103052.31;5179589;28;20037;-73
2023/02/06 04:19:51;;;;;;;43.85;16.85;;;;;;;2.27;100.00;103049.66;5179509;28;20029;-72
2023/02/06 04:22:22;;;;;;;38.83;15.40;;;;;;;2.29;100.00;103037.69;5176450;28;20030;-73
2023/02/06 04:24:52;;;;;;;40.38;16.55;;;;;;;2.34;100.00;103041.34;5179507;28;20539;-73
2023/02/06 04:27:23;;;;;;;37.50;15.82;;;;;;;2.20;100.00;103039.97;5179290;28;20033;-73
2023/02/06 04:29:53;;;;;;;34.05;16.30;;;;;;;2.25;100.00;103052.22;5177763;28;20495;-74
2023/02/06 04:32:23;;;;;;;40.20;15.00;;;;;;;2.30;100.00;103054.97;5179007;28;20312;-73
2023/02/06 04:34:54;;;;;;;35.95;16.00;;;;;;;2.35;100.00;103045.69;5177982;28;20087;-73
2023/02/06 04:37:24;;;;;;;36.90;15.75;;;;;;;2.34;100.00;103047.38;5179301;28;20026;-73
2023/02/06 04:39:54;;;;;;;37.65;16.20;;;;;;;2.46;100.00;103041.78;5175371;28;20290;-73
2023/02/06 04:42:25;;;;;;;36.22;16.25;;;;;;;2.46;100.00;103046.94;5176547;28;20026;-73
2023/02/06 04:44:55;;;;;;;45.42;16.52;;;;;;;2.44;100.00;103039.16;5171912;28;20396;-74
2023/02/06 04:47:25;;;;;;;37.58;16.92;;;;;;;2.36;100.00;103050.03;5179203;28;20048;-72
2023/02/06 04:49:56;;;;;;;34.65;14.98;;;;;;;2.44;100.00;103049.50;5174872;28;20112;-73
2023/02/06 04:52:26;;;;;;;36.08;15.02;;;;;;;2.38;100.00;103053.53;5181144;28;20041;-73
2023/02/06 04:54:56;;;;;;;37.58;15.05;;;;;;;2.36;100.00;103058.63;5181791;28;20061;-75
2023/02/06 04:57:27;;;;;;;33.58;14.73;;;;;;;2.31;100.00;103057.59;5181064;28;20009;-74
2023/02/06 04:59:57;;;;;;;43.30;15.02;;;;;;;2.33;100.00;103065.41;5179319;28;20050;-73
2023/02/06 05:02:27;;;;;;;33.30;13.90;;;;;;;2.39;100.00;103060.47;5181122;28;20026;-75
2023/02/06 05:04:57;;;;;;;31.25;13.40;;;;;;;2.27;100.00;103062.56;5194870;28;20120;-74
2023/02/06 05:07:28;;;;;;;33.20;13.05;;;;;;;2.27;100.00;103057.41;5182774;28;20029;-72
2023/02/06 05:09:58;;;;;;;34.85;13.93;;;;;;;2.29;100.00;103059.22;5183553;28;20026;-73
2023/02/06 05:12:28;;;;;;;33.00;13.55;;;;;;;2.30;100.00;103060.13;5179284;28;20124;-73
2023/02/06 05:14:59;;;;;;;31.55;12.63;;;;;;;2.21;100.00;103050.34;5182732;28;20034;-72
2023/02/06 05:17:29;;;;;;;29.42;12.88;;;;;;;2.24;100.00;103059.88;5183605;28;20483;-72
2023/02/06 05:19:59;;;;;;;28.05;11.75;;;;;;;2.18;100.00;103059.66;5181481;28;20018;-73
2023/02/06 05:22:29;;;;;;;25.10;11.90;;;;;;;2.24;100.00;103058.19;5181831;28;20209;-73
2023/02/06 05:25:00;;;;;;;27.05;11.98;;;;;;;2.29;100.00;103055.75;5182344;28;20581;-72
2023/02/06 05:27:30;;;;;;;29.67;11.57;;;;;;;2.20;100.00;103047.69;5181678;28;20026;-75
2023/02/06 05:30:00;;;;;;;25.13;11.07;;;;;;;2.38;100.00;103051.84;5177825;28;20037;-73
2023/02/06 05:32:31;;;;;;;23.15;10.48;;;;;;;2.37;100.00;103052.66;5179768;28;20057;-73
2023/02/06 05:35:01;;;;;;;27.27;11.98;;;;;;;2.27;100.00;103053.16;5182677;28;20036;-74
2023/02/06 05:37:32;;;;;;;28.17;11.55;;;;;;;2.30;100.00;103057.56;5182486;28;20064;-76
2023/02/06 05:40:03;;;;;;;26.65;11.93;;;;;;;2.23;100.00;103053.84;5180864;28;20057;-73
2023/02/06 05:42:34;;;;;;;31.08;12.15;;;;;;;2.37;100.00;103049.19;5178853;28;20026;-74
2023/02/06 05:45:05;;;;;;;32.53;12.68;;;;;;;2.45;100.00;103045.19;5179482;28;20427;-73
2023/02/06 05:47:35;;;;;;;37.55;13.70;;;;;;;2.42;100.00;103034.75;5183312;28;20025;-72
2023/02/06 05:50:06;;;;;;;33.80;13.98;;;;;;;2.50;100.00;103036.78;5168201;28;20094;-74
2023/02/06 05:52:36;;;;;;;39.15;14.70;;;;;;;2.45;100.00;103034.88;5180985;28;20053;-72
2023/02/06 05:55:07;;;;;;;34.72;14.75;;;;;;;2.47;100.00;103043.56;5181363;28;20443;-72
2023/02/06 05:57:37;;;;;;;41.53;14.95;;;;;;;2.43;100.00;103042.56;5182440;28;20026;-73
2023/02/06 06:00:09;;;;;;;37.50;15.05;;;;;;;2.39;100.00;103044.97;5182071;28;20029;-73
2023/02/06 06:02:39;;;;;;;37.58;16.50;;;;;;;2.34;100.00;103042.22;5177869;28;20034;-75
2023/02/06 06:05:09;;;;;;;37.20;15.70;;;;;;;2.47;100.00;103053.91;5181997;28;20050;-73
2023/02/06 06:07:40;;;;;;;34.20;15.40;;;;;;;2.34;100.00;103055.13;5179379;28;20499;-73
2023/02/06 06:10:10;;;;;;;35.92;15.68;;;;;;;2.48;100.00;103071.13;5184955;28;20072;-73
2023/02/06 06:12:40;;;;;;;38.95;16.15;;;;;;;2.40;100.00;103075.09;5181962;28;20026;-73
2023/02/06 06:15:11;;;;;;;33.83;15.18;;;;;;;2.48;100.00;103086.63;5178352;28;20038;-73
2023/02/06 06:17:41;;;;;;;39.08;15.95;;;;;;;2.47;100.00;103085.72;5180906;28;20490;-74
2023/02/06 06:20:11;;;;;;;34.45;14.98;;;;;;;2.48;100.00;103076.28;5181181;28;20116;-73
2023/02/06 06:22:42;;;;;;;36.20;15.73;;;;;;;2.47;100.00;103079.69;5177447;28;20092;-74
2023/02/06 06:25:12;;;;;;;38.50;16.40;;;;;;;2.34;100.00;103087.78;5180002;28;20056;-74
2023/02/06 06:27:42;;;;;;;36.25;16.02;;;;;;;2.46;100.00;103093.38;5179467;28;20065;-73
2023/02/06 06:30:13;;;;;;;42.70;16.67;;;;;;;2.42;100.00;103092.41;5172668;28;20088;-70
2023/02/06 06:32:43;;;;;;;37.05;15.93;;;;;;;2.15;100.00;103095.66;5179830;28;20026;-73
2023/02/06 06:35:14;;;;;;;39.25;15.57;;;;;;;2.13;100.00;103092.13;5176404;28;20041;-74
2023/02/06 06:37:44;;;;;;;33.22;15.23;;;;;;;2.24;100.00;103096.00;5179083;28;20036;-74
2023/02/06 06:40:14;;;;;;;40.60;16.23;;;;;;;2.23;100.00;103104.56;5176450;28;20091;-74
2023/02/06 06:42:44;;;;;;;34.28;15.75;;;;;;;2.24;100.00;103104.63;5179074;28;20049;-75
2023/02/06 06:45:15;;;;;;;39.50;16.42;;;;;;;2.11;100.00;103107.53;5182156;28;20312;-75
2023/02/06 06:47:46;;;;;;;36.10;14.90;;;;;;;2.24;100.00;103106.31;5175085;28;20056;-73
2023/02/06 06:50:16;;;;;;;37.15;16.98;;;;;;;2.28;100.00;103113.34;5180693;28;20033;-75
2023/02/06 06:52:46;;;;;;;49.97;21.17;;;;;;;2.32;100.00;103112.66;5180750;28;20124;-73
2023/02/06 06:55:18;;;;;;;48.80;20.02;;;;;;;2.32;100.00;103100.63;5175149;28;20021;-75
2023/02/06 06:57:48;;;;;;;42.97;17.67;;;;;;;2.30;100.00;103109.16;5179497;28;20028;-75
2023/02/06 07:00:19;;;;;;;63.03;25.80;;;;;;;2.28;100.00;103097.84;5178640;28;20120;-74
2023/02/06 07:02:49;;;;;;;55.03;21.85;;;;;;;2.05;100.00;103094.44;5179317;28;20032;-73
2023/02/06 07:05:20;;;;;;;57.42;19.17;;;;;;;2.15;100.00;103093.06;5175351;28;20919;-73
2023/02/06 07:07:50;;;;;;;48.85;21.45;;;;;;;2.15;100.00;103091.34;5180045;28;20108;-73
2023/02/06 07:10:20;;;;;;;51.08;20.92;;;;;;;2.10;100.00;103092.00;5180028;28;20033;-76
2023/02/06 07:12:52;;;;;;;45.05;18.95;;;;;;;2.11;100.00;103093.75;5175601;28;20041;-73
2023/02/06 07:15:22;;;;;;;51.55;18.67;;;;;;;2.15;100.00;103105.97;5180412;28;20273;-73
2023/02/06 07:17:53;;;;;;;48.40;19.85;;;;;;;2.07;100.00;103097.94;5180325;28;20089;-75
2023/02/06 07:20:24;;;;;;;47.30;19.77;;;;;;;2.17;100.00;103109.50;5180550;28;20026;-75
2023/02/06 07:22:54;;;;;;;35.97;16.20;;;;;;;2.11;100.00;103109.22;5177289;28;20026;-74
2023/02/06 07:25:24;;;;;;;43.63;17.20;;;;;;;2.08;100.00;103110.00;5180370;28;20033;-74
2023/02/06 07:27:55;;;;;;;44.03;19.13;;;;;;;2.26;100.00;103114.97;5180742;28;20022;-73
2023/02/06 07:30:25;;;;;;;39.22;16.75;;;;;;;2.21;100.00;103121.69;5177026;28;20491;-74
2023/02/06 07:32:56;;;;;;;38.58;17.50;;;;;;;2.25;100.00;103124.44;5180552;28;20026;-76
2023/02/06 07:35:26;;;;;;;34.72;15.80;;;;;;;2.26;100.00;103125.31;5180420;28;20097;-75
2023/02/06 07:37:56;;;;;;;39.22;15.95;;;;;;;2.22;100.00;103120.84;5180849;28;20018;-73
2023/02/06 07:40:27;;;;;;;38.58;17.98;;;;;;;2.14;100.00;103119.69;5177527;28;20480;-73
2023/02/06 07:42:57;;;;;;;42.90;18.60;;;;;;;2.08;100.00;103114.28;5179725;28;20495;-74
2023/02/06 07:45:27;;;;;;;41.20;17.75;;;;;;;2.14;100.00;103120.56;5178386;28;20041;-74
2023/02/06 07:47:58;;;;;;;40.53;18.42;;;;;;;2.21;100.00;103127.72;5175985;28;20106;-75
2023/02/06 07:50:28;;;;;;;46.58;21.35;;;;;;;2.05;100.00;103130.53;5180082;28;20514;-74
2023/02/06 07:52:59;;;;;;;47.67;19.38;;;;;;;2.26;100.00;103126.19;5180013;28;20049;-72
2023/02/06 07:55:29;;;;;;;40.15;17.98;;;;;;;2.42;100.00;103119.91;5178737;28;20472;-73
2023/02/06 07:58:00;;;;;;;50.28;18.05;;;;;;;2.35;100.00;103115.34;5178299;28;20037;-73
2023/02/06 08:00:30;;;;;;;39.83;16.40;;;;;;;2.39;100.00;103117.22;5176609;28;20036;-73
2023/02/06 08:03:00;;;;;;;41.10;17.02;;;;;;;2.52;100.00;103119.44;5180114;28;20224;-74
2023/02/06 08:08:05;;;;;;;45.15;18.30;;;;;;;2.50;100.00;103105.59;5177045;28;20050;-72
2023/02/06 08:10:37;;;;;;;34.88;16.27;;;;;;;2.43;100.00;103106.19;5186703;28;20045;-72
2023/02/06 08:13:08;;;;;;;34.40;15.68;;;;;;;2.49;100.00;103104.72;5180413;28;20514;-72
2023/02/06 08:15:38;;;;;;;33.45;14.93;;;;;;;2.43;100.00;103098.44;5188748;28;20128;-71
2023/02/06 08:18:08;;;;;;;37.13;14.75;;;;;;;2.46;100.00;103108.88;5187877;28;20068;-71
2023/02/06 08:20:38;;;;;;;35.05;14.45;;;;;;;2.37;100.00;103111.13;5185935;28;20029;-71
2023/02/06 08:23:09;;;;;;;38.15;15.25;;;;;;;2.44;100.00;103120.84;5180785;28;20018;-71
2023/02/06 08:25:39;;;;;;;38.05;15.73;;;;;;;2.44;100.00;103121.75;5189175;28;20053;-71
2023/02/06 08:28:13;;;;;;;35.78;16.05;;;;;;;2.48;100.00;103123.59;5195063;28;20022;-71
2023/02/06 08:30:43;;;;;;;38.30;15.80;;;;;;;2.47;100.00;103121.00;5193785;28;20117;-71
2023/02/06 08:33:14;;;;;;;32.63;15.00;;;;;;;2.65;100.00;103124.25;5185072;28;20530;-71
2023/02/06 08:35:44;;;;;;;37.28;17.05;;;;;;;2.53;100.00;103119.50;5194727;28;20101;-73
2023/02/06 08:38:14;;;;;;;32.60;14.93;;;;;;;2.56;100.00;103122.22;5192072;28;20373;-71
2023/02/06 08:40:45;;;;;;;35.25;15.13;;;;;;;2.59;100.00;103121.41;5193681;28;20053;-71
2023/02/06 08:43:15;;;;;;;31.75;14.55;;;;;;;2.60;100.00;103129.25;5189488;28;20041;-71
2023/02/06 08:45:50;;;;;;;28.30;12.55;;;;;;;2.60;100.00;103129.25;5196545;28;20035;-71
2023/02/06 08:48:20;;;;;;;;;;;;;;;2.55;100.00;103129.88;5192561;28;20042;-71
2023/02/06 08:51:01;;;;;;;38.10;17.95;;;;;;;2.61;100.00;103127.50;5190399;28;19945;-74
2023/02/06 08:53:31;;;;;;;34.90;16.05;;;;;;;2.59;100.00;103124.00;5185483;28;20487;-74
2023/02/06 08:56:07;;;;;;;42.00;18.65;;;;;;;2.50;100.00;103115.94;5191701;28;20025;-74
2023/02/06 08:58:38;;;;;;;65.72;29.70;;;;;;;2.39;100.00;103110.38;5192129;28;20533;-73
2023/02/06 09:01:17;;;;;;;39.83;17.42;;;;;;;2.49;100.00;103111.59;5191675;28;20037;-74
2023/02/06 09:03:48;;;;;;;36.05;17.20;;;;;;;2.53;100.00;103110.88;5187754;28;20048;-73
2023/02/06 09:06:18;;;;;;;34.33;14.68;;;;;;;2.53;100.00;103108.31;5193061;28;20045;-73
2023/02/06 09:08:48;;;;;;;40.20;19.05;;;;;;;2.66;100.00;103107.94;5195263;28;20627;-74
2023/02/06 09:11:21;;;;;;;45.08;19.88;;;;;;;2.52;100.00;103114.28;5190610;28;20026;-74
2023/02/06 09:13:55;;;;;;;43.92;20.17;;;;;;;2.63;100.00;103100.94;5189736;28;20022;-74
2023/02/06 09:16:27;;;;;;;55.25;24.67;;;;;;;2.67;100.00;103109.69;5186093;28;20203;-71
2023/02/06 09:19:00;;;;;;;40.05;19.45;;;;;;;2.68;100.00;103112.31;5186431;28;20387;-71
2023/02/06 09:21:32;;;;;;;38.53;16.73;;;;;;;2.36;100.00;103119.69;5186594;28;20498;-72
2023/02/06 09:24:05;;;;;;;38.90;17.85;;;;;;;2.51;100.00;103115.97;5184089;28;20021;-71
2023/02/06 09:26:38;;;;;;;29.75;15.50;;;;;;;2.66;100.00;103120.84;5190410;28;20037;-72
2023/02/06 09:29:10;;;;;;;32.80;14.63;;;;;;;2.67;100.00;103109.69;5193186;28;20041;-72
2023/02/06 09:31:41;;;;;;;26.10;12.88;;;;;;;2.74;100.00;103120.31;5187614;28;20017;-71
2023/02/06 09:34:12;;;;;;;30.50;13.10;;;;;;;2.82;100.00;103116.28;5189188;28;20054;-71
2023/02/06 09:36:42;;;;;;;27.67;12.15;;;;;;;2.85;100.00;103120.69;5194491;28;20622;-71
2023/02/06 09:39:13;;;;;;;23.70;11.38;;;;;;;2.72;100.00;103123.66;5193250;28;20522;-72
2023/02/06 09:41:46;;;;;;;26.35;10.18;;;;;;;2.74;100.00;103127.16;5186502;28;20032;-71
2023/02/06 09:44:28;;;;;;;23.17;10.48;;;;;;;2.67;100.00;103122.59;5190313;28;20057;-71
2023/02/06 09:47:11;;;;;;;24.55;10.32;;;;;;;2.83;100.00;103127.50;5190625;28;20030;-72
2023/02/06 09:49:46;;;;;;;20.25;9.95;;;;;;;2.90;100.00;103113.97;5190372;28;20048;-71
2023/02/06 09:52:25;;;;;;;24.92;9.65;;;;;;;2.86;100.00;103104.38;5182680;28;20454;-71
2023/02/06 09:55:07;;;;;;;25.13;11.00;;;;;;;2.98;100.00;103108.25;5193825;28;20115;-71
2023/02/06 09:57:49;;;;;;;20.35;9.02;;;;;;;2.90;100.00;103104.53;5199785;28;20464;-71
2023/02/06 10:00:53;;;;;;;19.85;8.63;;;;;;;3.00;100.00;103098.00;5192663;28;20076;-70
2023/02/06 10:03:46;;;;;;;21.85;8.68;;;;;;;2.78;100.00;103098.03;5193022;28;20060;-71
2023/02/06 10:06:25;;;;;;;19.42;7.50;;;;;;;2.76;100.00;103094.53;5186905;28;20041;-71
2023/02/06 10:09:04;;;;;;;23.40;8.65;;;;;;;2.85;100.00;103092.28;5190007;28;20029;-71
2023/02/06 10:11:37;;;;;;;17.05;8.38;;;;;;;2.79;100.00;103097.22;5185547;28;20026;-73
2023/02/06 10:14:45;;;;;;;17.10;7.93;;;;;;;2.89;100.00;103101.91;5191919;28;20438;-71
2023/02/06 10:17:35;;;;;;;18.13;7.75;;;;;;;2.87;100.00;103099.25;5181816;28;20029;-72
2023/02/06 10:20:31;;;;;;;13.48;6.75;;;;;;;2.65;100.00;103106.19;5184594;28;20052;-72
2023/02/06 10:23:14;;;;;;;21.02;7.20;;;;;;;2.82;100.00;103111.13;5185515;28;20033;-71
2023/02/06 10:26:11;;;;;;;21.35;7.85;;;;;;;2.76;100.00;103100.59;5191485;28;20041;-73
2023/02/06 10:28:46;;;;;;;18.75;7.32;;;;;;;2.79;100.00;103094.63;5184687;28;20383;-71
2023/02/06 10:31:25;;;;;;;16.17;6.95;;;;;;;2.77;100.00;103104.03;5191990;28;20595;-71
2023/02/06 10:34:26;;;;;;;21.40;7.68;;;;;;;2.79;100.00;103105.84;5191550;28;20059;-71
2023/02/06 10:37:25;;;;;;;19.45;7.63;;;;;;;2.78;100.00;103108.38;5180874;28;20032;-73
2023/02/06 10:40:10;;;;;;;24.33;7.90;;;;;;;2.79;100.00;103104.97;5192731;28;20033;-73
2023/02/06 10:42:51;;;;;;;19.80;7.55;;;;;;;2.73;100.00;103103.06;5191314;28;20087;-73
2023/02/06 10:45:42;;;;;;;17.98;7.85;;;;;;;2.90;100.00;103103.66;5192291;28;20083;-74
2023/02/06 10:48:28;;;;;;;17.85;6.97;;;;;;;2.94;100.00;103093.50;5187822;28;20040;-71
2023/02/06 10:51:29;;;;;;;15.70;6.47;;;;;;;2.87;100.00;103103.53;5181182;28;20041;-71
2023/02/06 10:54:10;;;;;;;17.13;6.38;;;;;;;2.92;100.00;103100.31;5188314;28;20055;-73
2023/02/06 10:56:43;;;;;;;17.65;6.15;;;;;;;2.77;100.00;103106.59;5178715;28;20028;-71
2023/02/06 10:59:21;;;;;;;16.65;6.20;;;;;;;2.61;100.00;103107.75;5191356;28;20034;-70
2023/02/06 11:02:01;;;;;;;17.83;6.38;;;;;;;2.98;100.00;103105.69;5191816;28;20517;-69
2023/02/06 11:04:40;;;;;;;15.43;5.97;;;;;;;2.83;100.00;103104.28;5190529;28;20527;-70
2023/02/06 11:07:18;;;;;;;17.23;5.68;;;;;;;2.86;100.00;103089.75;5186625;28;20140;-74
2023/02/06 11:09:48;;;;;;;14.75;5.70;;;;;;;2.94;100.00;103092.59;5186049;28;20105;-71
2023/02/06 11:12:33;;;;;;;15.85;6.15;;;;;;;2.84;100.00;103077.63;5191360;28;20105;-72
2023/02/06 11:15:23;;;;;;;19.60;6.03;;;;;;;2.94;100.00;103078.00;5181207;28;20037;-71
2023/02/06 11:17:54;;;;;;;21.90;5.32;;;;;;;2.90;100.00;103073.56;5184441;28;20491;-72
2023/02/06 11:20:29;;;;;;;14.60;5.97;;;;;;;3.18;100.00;103076.25;5182692;28;20021;-71
2023/02/06 11:23:15;;;;;;;15.25;5.85;;;;;;;3.06;98.28;103074.97;5182551;28;20037;-70
2023/02/06 11:25:54;;;;;;;15.88;4.82;;;;;;;3.11;98.23;103070.81;5181195;28;20229;-72
2023/02/06 11:28:25;;;;;;;12.88;4.88;;;;;;;3.11;98.42;103063.97;5187275;28;20482;-71
2023/02/06 11:30:59;;;;;;;14.82;5.53;;;;;;;3.18;99.50;103060.75;5187616;28;20174;-72
2023/02/06 11:33:38;;;;;;;15.35;5.55;;;;;;;3.19;100.00;103066.81;5187069;28;20025;-71
2023/02/06 11:36:36;;;;;;;16.83;4.80;;;;;;;3.08;98.26;103056.13;5187886;28;20037;-70
2023/02/06 11:39:31;;;;;;;16.35;4.40;;;;;;;3.03;98.42;103069.69;5185657;28;20493;-71
2023/02/06 11:42:06;;;;;;;11.15;3.40;;;;;;;3.03;97.08;103067.09;5184311;28;20126;-73
2023/02/06 11:44:43;;;;;;;11.88;3.50;;;;;;;3.20;95.81;103063.41;5187914;28;20033;-71
2023/02/06 11:47:26;;;;;;;7.32;2.85;;;;;;;3.39;94.42;103061.47;5180201;28;20030;-75